createdAt,value
2018-12-26T00:00:57.179Z,1026.18
2018-12-26T00:01:57.166Z,1026.18
2018-12-26T00:02:57.158Z,1026.15
2018-12-26T00:03:57.145Z,1026.14
2018-12-26T00:04:57.137Z,1026.15
2018-12-26T00:05:57.121Z,1026.16
2018-12-26T00:06:57.113Z,1026.12
2018-12-26T00:07:57.099Z,1026.15
2018-12-26T00:08:57.089Z,1026.13
2018-12-26T00:09:57.077Z,1026.15
2018-12-26T00:10:57.068Z,1026.17
2018-12-26T00:11:57.053Z,1026.15
2018-12-26T00:12:57.043Z,1026.17
2018-12-26T00:13:57.029Z,1026.14
2018-12-26T00:14:57.022Z,1026.17
2018-12-26T00:15:57.007Z,1026.17
2018-12-26T00:16:56.997Z,1026.17
2018-12-26T00:17:56.983Z,1026.18
2018-12-26T00:18:56.974Z,1026.18
2018-12-26T00:19:57.063Z,1026.15
2018-12-26T00:20:56.951Z,1026.12
2018-12-26T00:21:56.941Z,1026.12
2018-12-26T00:22:56.929Z,1026.17
2018-12-26T00:23:56.954Z,1026.15
2018-12-26T00:24:56.907Z,1026.12
2018-12-26T00:26:01.596Z,1026.10
2018-12-26T00:26:56.884Z,1026.10
2018-12-26T00:27:56.872Z,1026.07
2018-12-26T00:28:56.860Z,1026.13
2018-12-26T00:29:56.847Z,1026.10
2018-12-26T00:30:56.838Z,1026.09
2018-12-26T00:31:56.825Z,1026.12
2018-12-26T00:32:56.816Z,1026.11
2018-12-26T00:33:56.803Z,1026.09
2018-12-26T00:34:56.793Z,1026.11
2018-12-26T00:35:56.781Z,1026.12
2018-12-26T00:36:56.770Z,1026.14
2018-12-26T00:37:56.756Z,1026.11
2018-12-26T00:38:56.748Z,1026.12
2018-12-26T00:39:56.734Z,1026.13
2018-12-26T00:40:56.725Z,1026.11
2018-12-26T00:41:56.714Z,1026.16
2018-12-26T00:42:56.701Z,1026.13
2018-12-26T00:43:56.688Z,1026.14
2018-12-26T00:44:56.678Z,1026.11
2018-12-26T00:45:56.667Z,1026.15
2018-12-26T00:46:56.656Z,1026.11
2018-12-26T00:47:56.643Z,1026.16
2018-12-26T00:48:56.632Z,1026.13
2018-12-26T00:49:56.620Z,1026.13
2018-12-26T00:50:56.610Z,1026.14
2018-12-26T00:51:56.598Z,1026.13
2018-12-26T00:52:56.586Z,1026.09
2018-12-26T00:53:56.573Z,1026.05
2018-12-26T00:54:56.565Z,1026.02
2018-12-26T00:55:56.558Z,1026.00
2018-12-26T00:56:56.541Z,1026.02
2018-12-26T00:57:56.528Z,1025.96
2018-12-26T00:58:56.519Z,1025.94
2018-12-26T00:59:56.506Z,1025.88
2018-12-26T01:00:56.496Z,1025.90
2018-12-26T01:01:56.482Z,1025.90
2018-12-26T01:02:56.473Z,1025.87
2018-12-26T01:03:56.477Z,1025.89
2018-12-26T01:04:56.449Z,1025.89
2018-12-26T01:05:56.436Z,1025.90
2018-12-26T01:06:56.426Z,1025.92
2018-12-26T01:07:56.414Z,1025.95
2018-12-26T01:08:56.403Z,1025.91
2018-12-26T01:09:56.389Z,1025.95
2018-12-26T01:10:56.396Z,1025.99
2018-12-26T01:11:56.372Z,1025.96
2018-12-26T01:12:56.357Z,1026.01
2018-12-26T01:13:56.344Z,1026.02
2018-12-26T01:14:56.335Z,1026.01
2018-12-26T01:15:56.322Z,1025.99
2018-12-26T01:16:56.318Z,1026.02
2018-12-26T01:17:58.198Z,1026.02
2018-12-26T01:18:56.292Z,1025.96
2018-12-26T01:19:56.277Z,1025.94
2018-12-26T01:20:56.265Z,1025.95
2018-12-26T01:21:56.251Z,1025.94
2018-12-26T01:22:56.246Z,1025.96
2018-12-26T01:23:56.228Z,1025.93
2018-12-26T01:24:56.218Z,1025.94
2018-12-26T01:25:56.205Z,1025.97
2018-12-26T01:26:56.196Z,1025.95
2018-12-26T01:27:56.202Z,1025.98
2018-12-26T01:28:56.173Z,1025.99
2018-12-26T01:29:56.158Z,1026.01
2018-12-26T01:30:56.149Z,1026.00
2018-12-26T01:31:56.136Z,1026.02
2018-12-26T01:32:56.125Z,1026.02
2018-12-26T01:33:56.112Z,1026.07
2018-12-26T01:34:56.103Z,1026.06
2018-12-26T01:35:56.231Z,1026.00
2018-12-26T01:36:56.081Z,1026.02
2018-12-26T01:37:56.067Z,1026.01
2018-12-26T01:38:56.059Z,1025.98
2018-12-26T01:39:56.044Z,1026.02
2018-12-26T01:40:56.034Z,1025.95
2018-12-26T01:41:56.021Z,1025.95
2018-12-26T01:42:56.012Z,1025.97
2018-12-26T01:43:55.998Z,1025.98
2018-12-26T01:44:55.990Z,1025.97
2018-12-26T01:45:55.976Z,1025.94
2018-12-26T01:46:55.967Z,1025.91
2018-12-26T01:47:55.952Z,1025.89
2018-12-26T01:48:55.941Z,1025.89
2018-12-26T01:49:55.928Z,1025.86
2018-12-26T01:50:55.919Z,1025.85
2018-12-26T01:51:55.906Z,1025.83
2018-12-26T01:52:55.895Z,1025.79
2018-12-26T01:53:55.882Z,1025.80
2018-12-26T01:54:55.872Z,1025.76
2018-12-26T01:55:55.859Z,1025.75
2018-12-26T01:56:55.851Z,1025.70
2018-12-26T01:57:55.842Z,1025.73
2018-12-26T01:58:55.826Z,1025.74
2018-12-26T01:59:55.813Z,1025.74
2018-12-26T02:00:55.803Z,1025.74
2018-12-26T02:01:55.790Z,1025.77
2018-12-26T02:02:55.781Z,1025.72
2018-12-26T02:03:55.767Z,1025.70
2018-12-26T02:04:55.758Z,1025.73
2018-12-26T02:05:55.743Z,1025.68
2018-12-26T02:06:55.734Z,1025.72
2018-12-26T02:07:55.722Z,1025.68
2018-12-26T02:08:55.711Z,1025.60
2018-12-26T02:09:55.697Z,1025.60
2018-12-26T02:10:55.688Z,1025.60
2018-12-26T02:11:55.675Z,1025.53
2018-12-26T02:12:55.665Z,1025.55
2018-12-26T02:13:55.652Z,1025.58
2018-12-26T02:14:55.644Z,1025.58
2018-12-26T02:15:55.630Z,1025.56
2018-12-26T02:16:55.619Z,1025.55
2018-12-26T02:17:55.605Z,1025.55
2018-12-26T02:18:55.597Z,1025.51
2018-12-26T02:19:55.585Z,1025.48
2018-12-26T02:20:55.575Z,1025.52
2018-12-26T02:21:55.561Z,1025.52
2018-12-26T02:22:55.552Z,1025.51
2018-12-26T02:23:55.538Z,1025.47
2018-12-26T02:24:55.529Z,1025.47
2018-12-26T02:25:55.516Z,1025.48
2018-12-26T02:26:55.507Z,1025.49
2018-12-26T02:27:55.493Z,1025.49
2018-12-26T02:28:55.484Z,1025.51
2018-12-26T02:29:55.473Z,1025.46
2018-12-26T02:30:55.467Z,1025.49
2018-12-26T02:31:55.464Z,1025.50
2018-12-26T02:32:55.439Z,1025.48
2018-12-26T02:33:55.423Z,1025.49
2018-12-26T02:34:55.415Z,1025.45
2018-12-26T02:35:55.403Z,1025.51
2018-12-26T02:36:55.510Z,1025.45
2018-12-26T02:37:55.380Z,1025.47
2018-12-26T02:38:55.368Z,1025.46
2018-12-26T02:39:55.356Z,1025.46
2018-12-26T02:40:55.345Z,1025.48
2018-12-26T02:41:55.334Z,1025.46
2018-12-26T02:42:55.322Z,1025.47
2018-12-26T02:43:55.309Z,1025.50
2018-12-26T02:44:55.299Z,1025.50
2018-12-26T02:45:55.285Z,1025.49
2018-12-26T02:46:55.279Z,1025.45
2018-12-26T02:47:55.263Z,1025.44
2018-12-26T02:48:55.253Z,1025.42
2018-12-26T02:49:55.240Z,1025.43
2018-12-26T02:50:55.232Z,1025.44
2018-12-26T02:51:55.217Z,1025.40
2018-12-26T02:52:55.206Z,1025.40
2018-12-26T02:53:55.193Z,1025.36
2018-12-26T02:54:55.193Z,1025.39
2018-12-26T02:55:55.191Z,1025.36
2018-12-26T02:56:55.160Z,1025.32
2018-12-26T02:57:55.155Z,1025.31
2018-12-26T02:58:55.141Z,1025.33
2018-12-26T02:59:55.127Z,1025.32
2018-12-26T03:00:55.119Z,1025.34
2018-12-26T03:01:55.135Z,1025.31
2018-12-26T03:02:55.090Z,1025.20
2018-12-26T03:03:55.077Z,1025.21
2018-12-26T03:04:55.070Z,1025.19
2018-12-26T03:05:55.055Z,1025.27
2018-12-26T03:06:55.043Z,1025.25
2018-12-26T03:07:55.031Z,1025.21
2018-12-26T03:08:55.020Z,1025.20
2018-12-26T03:09:55.007Z,1025.17
2018-12-26T03:10:55.000Z,1025.15
2018-12-26T03:11:54.983Z,1025.19
2018-12-26T03:12:54.974Z,1025.14
2018-12-26T03:13:54.960Z,1025.14
2018-12-26T03:14:54.951Z,1025.18
2018-12-26T03:15:54.937Z,1025.14
2018-12-26T03:16:54.928Z,1025.15
2018-12-26T03:17:54.920Z,1025.13
2018-12-26T03:18:54.906Z,1025.12
2018-12-26T03:19:54.892Z,1025.11
2018-12-26T03:20:54.882Z,1025.12
2018-12-26T03:21:54.876Z,1025.07
2018-12-26T03:22:54.858Z,1025.09
2018-12-26T03:23:54.846Z,1025.09
2018-12-26T03:24:54.839Z,1025.07
2018-12-26T03:25:54.823Z,1025.02
2018-12-26T03:26:56.362Z,1025.03
2018-12-26T03:27:54.798Z,1025.06
2018-12-26T03:28:54.788Z,1025.05
2018-12-26T03:29:54.775Z,1025.04
2018-12-26T03:30:54.766Z,1025.00
2018-12-26T03:31:54.753Z,1025.02
2018-12-26T03:32:54.745Z,1024.98
2018-12-26T03:33:54.728Z,1024.96
2018-12-26T03:34:54.720Z,1024.93
2018-12-26T03:35:54.705Z,1024.89
2018-12-26T03:36:54.696Z,1024.86
2018-12-26T03:37:54.682Z,1024.84
2018-12-26T03:38:54.672Z,1024.80
2018-12-26T03:39:54.662Z,1024.80
2018-12-26T03:40:54.654Z,1024.78
2018-12-26T03:41:54.637Z,1024.75
2018-12-26T03:42:54.627Z,1024.74
2018-12-26T03:43:54.613Z,1024.73
2018-12-26T03:44:54.604Z,1024.67
2018-12-26T03:45:54.589Z,1024.64
2018-12-26T03:46:54.586Z,1024.70
2018-12-26T03:47:54.566Z,1024.69
2018-12-26T03:48:54.556Z,1024.71
2018-12-26T03:49:54.551Z,1024.71
2018-12-26T03:50:54.535Z,1024.67
2018-12-26T03:51:54.522Z,1024.71
2018-12-26T03:52:54.509Z,1024.70
2018-12-26T03:53:54.497Z,1024.69
2018-12-26T03:54:54.490Z,1024.70
2018-12-26T03:55:54.474Z,1024.71
2018-12-26T03:56:54.460Z,1024.71
2018-12-26T03:57:54.451Z,1024.69
2018-12-26T03:58:54.451Z,1024.69
2018-12-26T03:59:54.523Z,1024.70
2018-12-26T04:00:54.413Z,1024.68
2018-12-26T04:01:54.404Z,1024.65
2018-12-26T04:02:54.389Z,1024.63
2018-12-26T04:03:54.380Z,1024.62
2018-12-26T04:04:54.365Z,1024.61
2018-12-26T04:05:54.362Z,1024.60
2018-12-26T04:06:54.342Z,1024.57
2018-12-26T04:07:54.334Z,1024.58
2018-12-26T04:08:54.317Z,1024.59
2018-12-26T04:09:54.308Z,1024.61
2018-12-26T04:10:54.294Z,1024.60
2018-12-26T04:11:54.285Z,1024.57
2018-12-26T04:12:54.270Z,1024.62
2018-12-26T04:13:54.260Z,1024.58
2018-12-26T04:14:54.249Z,1024.56
2018-12-26T04:15:54.238Z,1024.61
2018-12-26T04:16:54.222Z,1024.53
2018-12-26T04:17:54.214Z,1024.54
2018-12-26T04:18:54.199Z,1024.58
2018-12-26T04:19:54.189Z,1024.59
2018-12-26T04:20:54.174Z,1024.56
2018-12-26T04:21:54.165Z,1024.60
2018-12-26T04:22:54.151Z,1024.61
2018-12-26T04:23:54.140Z,1024.54
2018-12-26T04:24:54.129Z,1024.51
2018-12-26T04:25:54.116Z,1024.53
2018-12-26T04:26:54.103Z,1024.48
2018-12-26T04:27:54.095Z,1024.49
2018-12-26T04:28:54.080Z,1024.49
2018-12-26T04:29:54.069Z,1024.49
2018-12-26T04:30:54.054Z,1024.51
2018-12-26T04:31:54.044Z,1024.49
2018-12-26T04:32:54.029Z,1024.47
2018-12-26T04:33:54.019Z,1024.48
2018-12-26T04:34:54.011Z,1024.52
2018-12-26T04:35:53.997Z,1024.52
2018-12-26T04:36:53.981Z,1024.49
2018-12-26T04:37:53.971Z,1024.52
2018-12-26T04:38:53.957Z,1024.53
2018-12-26T04:39:53.947Z,1024.53
2018-12-26T04:40:53.934Z,1024.57
2018-12-26T04:41:53.924Z,1024.58
2018-12-26T04:42:53.909Z,1024.54
2018-12-26T04:43:53.901Z,1024.58
2018-12-26T04:44:53.889Z,1024.57
2018-12-26T04:45:53.875Z,1024.53
2018-12-26T04:46:53.861Z,1024.54
2018-12-26T04:47:53.853Z,1024.53
2018-12-26T04:48:53.837Z,1024.59
2018-12-26T04:49:53.830Z,1024.55
2018-12-26T04:50:53.813Z,1024.58
2018-12-26T04:51:53.804Z,1024.53
2018-12-26T04:52:53.791Z,1024.57
2018-12-26T04:53:53.780Z,1024.57
2018-12-26T04:54:53.774Z,1024.59
2018-12-26T04:55:53.755Z,1024.55
2018-12-26T04:56:53.741Z,1024.62
2018-12-26T04:57:53.732Z,1024.60
2018-12-26T04:58:53.725Z,1024.67
2018-12-26T04:59:53.711Z,1024.67
2018-12-26T05:00:53.693Z,1024.71
2018-12-26T05:01:53.683Z,1024.76
2018-12-26T05:02:53.675Z,1024.80
2018-12-26T05:03:53.661Z,1024.82
2018-12-26T05:04:53.645Z,1024.80
2018-12-26T05:05:53.640Z,1024.80
2018-12-26T05:06:53.633Z,1024.82
2018-12-26T05:07:53.613Z,1024.87
2018-12-26T05:08:53.598Z,1024.82
2018-12-26T05:09:53.592Z,1024.78
2018-12-26T05:10:53.578Z,1024.81
2018-12-26T05:11:53.581Z,1024.89
2018-12-26T05:12:53.552Z,1024.88
2018-12-26T05:13:53.542Z,1024.87
2018-12-26T05:14:53.535Z,1024.85
2018-12-26T05:15:53.520Z,1024.86
2018-12-26T05:16:53.507Z,1024.84
2018-12-26T05:17:53.495Z,1024.85
2018-12-26T05:18:53.526Z,1024.87
2018-12-26T05:19:53.473Z,1024.83
2018-12-26T05:20:53.457Z,1024.79
2018-12-26T05:21:53.452Z,1024.86
2018-12-26T05:22:53.434Z,1024.86
2018-12-26T05:23:53.425Z,1024.90
2018-12-26T05:24:53.411Z,1024.90
2018-12-26T05:25:53.401Z,1024.89
2018-12-26T05:26:53.462Z,1024.93
2018-12-26T05:27:53.378Z,1024.92
2018-12-26T05:28:53.364Z,1024.92
2018-12-26T05:29:53.354Z,1024.92
2018-12-26T05:30:53.340Z,1024.89
2018-12-26T05:31:53.332Z,1024.93
2018-12-26T05:32:53.317Z,1024.84
2018-12-26T05:33:53.308Z,1024.90
2018-12-26T05:34:53.294Z,1024.87
2018-12-26T05:35:53.285Z,1024.87
2018-12-26T05:36:53.270Z,1024.88
2018-12-26T05:37:53.261Z,1024.86
2018-12-26T05:38:53.284Z,1024.89
2018-12-26T05:39:53.238Z,1024.90
2018-12-26T05:40:53.223Z,1024.93
2018-12-26T05:41:53.217Z,1024.95
2018-12-26T05:42:53.200Z,1024.94
2018-12-26T05:43:53.193Z,1024.95
2018-12-26T05:44:53.176Z,1024.92
2018-12-26T05:45:53.167Z,1024.93
2018-12-26T05:46:53.153Z,1024.95
2018-12-26T05:47:53.143Z,1024.93
2018-12-26T05:48:53.129Z,1024.97
2018-12-26T05:49:53.119Z,1024.97
2018-12-26T05:50:53.106Z,1024.94
2018-12-26T05:51:53.096Z,1024.95
2018-12-26T05:52:53.081Z,1024.94
2018-12-26T05:53:53.071Z,1024.93
2018-12-26T05:54:53.062Z,1024.90
2018-12-26T05:55:53.049Z,1024.87
2018-12-26T05:56:53.033Z,1024.87
2018-12-26T05:57:53.024Z,1024.88
2018-12-26T05:58:53.010Z,1024.87
2018-12-26T05:59:53.000Z,1024.86
2018-12-26T06:00:52.985Z,1024.87
2018-12-26T06:01:52.975Z,1024.87
2018-12-26T06:02:52.961Z,1024.90
2018-12-26T06:03:52.952Z,1024.88
2018-12-26T06:04:52.936Z,1024.88
2018-12-26T06:05:52.926Z,1024.92
2018-12-26T06:06:52.913Z,1024.94
2018-12-26T06:07:52.903Z,1024.93
2018-12-26T06:08:52.887Z,1024.89
2018-12-26T06:09:52.879Z,1024.91
2018-12-26T06:10:52.864Z,1024.93
2018-12-26T06:11:52.854Z,1024.88
2018-12-26T06:12:52.839Z,1024.94
2018-12-26T06:13:52.829Z,1024.90
2018-12-26T06:14:52.819Z,1024.96
2018-12-26T06:15:52.809Z,1024.98
2018-12-26T06:16:52.791Z,1024.97
2018-12-26T06:17:52.832Z,1024.99
2018-12-26T06:18:52.767Z,1024.99
2018-12-26T06:19:52.756Z,1025.01
2018-12-26T06:20:52.741Z,1025.01
2018-12-26T06:21:52.731Z,1025.02
2018-12-26T06:22:52.722Z,1025.01
2018-12-26T06:23:52.727Z,1025.01
2018-12-26T06:24:52.692Z,1024.97
2018-12-26T06:25:52.684Z,1025.03
2018-12-26T06:26:52.668Z,1024.97
2018-12-26T06:27:52.666Z,1025.01
2018-12-26T06:28:52.646Z,1024.99
2018-12-26T06:29:52.634Z,1025.04
2018-12-26T06:30:52.620Z,1025.02
2018-12-26T06:31:52.611Z,1025.05
2018-12-26T06:32:52.595Z,1025.05
2018-12-26T06:33:52.586Z,1025.06
2018-12-26T06:34:52.572Z,1025.03
2018-12-26T06:35:52.563Z,1025.05
2018-12-26T06:36:52.548Z,1025.03
2018-12-26T06:37:52.540Z,1025.04
2018-12-26T06:38:52.524Z,1025.04
2018-12-26T06:39:52.515Z,1025.01
2018-12-26T06:40:52.503Z,1024.97
2018-12-26T06:41:52.490Z,1024.99
2018-12-26T06:42:52.478Z,1024.99
2018-12-26T06:43:52.466Z,1024.93
2018-12-26T06:44:52.452Z,1024.98
2018-12-26T06:45:52.441Z,1024.93
2018-12-26T06:46:52.427Z,1024.94
2018-12-26T06:47:52.426Z,1024.95
2018-12-26T06:48:52.402Z,1024.99
2018-12-26T06:49:52.495Z,1024.97
2018-12-26T06:50:52.379Z,1025.00
2018-12-26T06:51:52.368Z,1025.02
2018-12-26T06:52:52.354Z,1024.99
2018-12-26T06:53:52.344Z,1025.00
2018-12-26T06:54:52.330Z,1024.99
2018-12-26T06:55:52.328Z,1025.04
2018-12-26T06:56:52.305Z,1025.00
2018-12-26T06:57:59.839Z,1025.02
2018-12-26T06:58:52.282Z,1025.04
2018-12-26T06:59:52.272Z,1025.06
2018-12-26T07:00:52.257Z,1025.04
2018-12-26T07:01:52.248Z,1025.04
2018-12-26T07:02:52.233Z,1025.08
2018-12-26T07:03:52.224Z,1025.07
2018-12-26T07:04:52.209Z,1025.08
2018-12-26T07:05:52.199Z,1025.06
2018-12-26T07:06:52.185Z,1025.08
2018-12-26T07:07:52.176Z,1025.07
2018-12-26T07:08:52.161Z,1025.05
2018-12-26T07:09:52.151Z,1025.05
2018-12-26T07:10:52.137Z,1025.01
2018-12-26T07:11:52.129Z,1025.03
2018-12-26T07:12:52.118Z,1025.02
2018-12-26T07:13:52.103Z,1024.99
2018-12-26T07:14:52.089Z,1025.01
2018-12-26T07:15:52.176Z,1025.02
2018-12-26T07:16:52.065Z,1024.97
2018-12-26T07:17:52.055Z,1025.01
2018-12-26T07:18:52.041Z,1025.06
2018-12-26T07:19:52.032Z,1025.04
2018-12-26T07:20:52.017Z,1025.02
2018-12-26T07:21:52.008Z,1025.07
2018-12-26T07:22:51.997Z,1025.07
2018-12-26T07:23:51.985Z,1025.00
2018-12-26T07:24:51.969Z,1024.98
2018-12-26T07:25:51.960Z,1025.02
2018-12-26T07:26:51.945Z,1025.01
2018-12-26T07:27:51.936Z,1024.98
2018-12-26T07:28:51.921Z,1025.04
2018-12-26T07:29:51.911Z,1025.02
2018-12-26T07:30:51.897Z,1025.01
2018-12-26T07:31:51.887Z,1025.00
2018-12-26T07:32:51.874Z,1025.01
2018-12-26T07:33:51.864Z,1025.00
2018-12-26T07:34:51.848Z,1024.97
2018-12-26T07:35:51.839Z,1025.02
2018-12-26T07:36:51.823Z,1025.00
2018-12-26T07:37:51.816Z,1025.03
2018-12-26T07:38:51.806Z,1024.97
2018-12-26T07:39:51.798Z,1024.99
2018-12-26T07:40:51.777Z,1024.96
2018-12-26T07:41:51.765Z,1025.00
2018-12-26T07:42:51.751Z,1024.95
2018-12-26T07:43:51.747Z,1025.01
2018-12-26T07:44:51.726Z,1024.96
2018-12-26T07:45:51.716Z,1024.98
2018-12-26T07:46:51.702Z,1024.95
2018-12-26T07:47:51.694Z,1024.93
2018-12-26T07:48:51.677Z,1024.91
2018-12-26T07:49:51.667Z,1024.91
2018-12-26T07:50:51.656Z,1024.91
2018-12-26T07:51:51.646Z,1024.92
2018-12-26T07:52:51.630Z,1024.90
2018-12-26T07:53:51.619Z,1024.91
2018-12-26T07:54:51.605Z,1024.94
2018-12-26T07:55:51.595Z,1024.93
2018-12-26T07:56:51.581Z,1024.93
2018-12-26T07:57:51.570Z,1024.93
2018-12-26T07:58:51.558Z,1024.90
2018-12-26T07:59:51.546Z,1024.98
2018-12-26T08:00:51.531Z,1024.94
2018-12-26T08:01:51.521Z,1024.93
2018-12-26T08:02:51.507Z,1024.95
2018-12-26T08:03:51.497Z,1024.94
2018-12-26T08:04:51.483Z,1024.94
2018-12-26T08:05:51.473Z,1024.95
2018-12-26T08:06:51.459Z,1024.94
2018-12-26T08:07:51.451Z,1024.93
2018-12-26T08:08:51.434Z,1024.93
2018-12-26T08:09:51.425Z,1024.96
2018-12-26T08:10:51.412Z,1024.91
2018-12-26T08:11:51.401Z,1024.97
2018-12-26T08:12:51.387Z,1024.95
2018-12-26T08:13:51.377Z,1024.94
2018-12-26T08:14:51.364Z,1024.99
2018-12-26T08:15:51.349Z,1024.95
2018-12-26T08:16:53.304Z,1024.96
2018-12-26T08:17:51.324Z,1024.91
2018-12-26T08:18:51.315Z,1024.92
2018-12-26T08:19:51.301Z,1024.93
2018-12-26T08:20:51.290Z,1024.89
2018-12-26T08:21:51.276Z,1024.92
2018-12-26T08:22:51.266Z,1024.89
2018-12-26T08:23:51.252Z,1024.94
2018-12-26T08:24:51.242Z,1024.91
2018-12-26T08:25:51.228Z,1024.91
2018-12-26T08:26:51.218Z,1024.96
2018-12-26T08:27:51.204Z,1024.91
2018-12-26T08:28:51.193Z,1024.91
2018-12-26T08:29:51.178Z,1024.90
2018-12-26T08:30:51.169Z,1024.96
2018-12-26T08:31:51.154Z,1024.93
2018-12-26T08:32:51.144Z,1024.93
2018-12-26T08:33:51.131Z,1024.93
2018-12-26T08:34:51.121Z,1024.92
2018-12-26T08:35:51.107Z,1024.98
2018-12-26T08:36:51.095Z,1024.92
2018-12-26T08:37:51.088Z,1024.94
2018-12-26T08:38:51.072Z,1024.95
2018-12-26T08:39:51.057Z,1024.95
2018-12-26T08:40:51.047Z,1024.91
2018-12-26T08:41:51.033Z,1024.92
2018-12-26T08:42:51.023Z,1024.90
2018-12-26T08:43:51.009Z,1024.93
2018-12-26T08:44:50.998Z,1024.95
2018-12-26T08:45:50.984Z,1024.94
2018-12-26T08:46:50.976Z,1024.94
2018-12-26T08:47:50.961Z,1024.94
2018-12-26T08:48:50.951Z,1024.94
2018-12-26T08:49:50.936Z,1024.94
2018-12-26T08:50:50.927Z,1024.94
2018-12-26T08:51:50.915Z,1024.94
2018-12-26T08:52:50.903Z,1024.94
2018-12-26T08:53:50.892Z,1024.95
2018-12-26T08:54:50.888Z,1024.95
2018-12-26T08:55:50.865Z,1024.96
2018-12-26T08:56:50.855Z,1025.02
2018-12-26T08:57:50.840Z,1024.98
2018-12-26T08:58:50.833Z,1024.97
2018-12-26T08:59:50.832Z,1025.01
2018-12-26T09:00:50.807Z,1025.04
2018-12-26T09:01:50.792Z,1025.00
2018-12-26T09:02:50.783Z,1025.01
2018-12-26T09:03:50.769Z,1025.02
2018-12-26T09:04:50.759Z,1025.03
2018-12-26T09:05:50.745Z,1025.04
2018-12-26T09:06:50.735Z,1025.02
2018-12-26T09:07:50.721Z,1025.03
2018-12-26T09:08:50.711Z,1025.03
2018-12-26T09:09:50.697Z,1025.05
2018-12-26T09:10:50.688Z,1025.03
2018-12-26T09:11:50.675Z,1025.04
2018-12-26T09:12:50.663Z,1025.06
2018-12-26T09:13:50.649Z,1025.08
2018-12-26T09:14:50.640Z,1025.05
2018-12-26T09:15:50.627Z,1025.08
2018-12-26T09:16:50.618Z,1025.07
2018-12-26T09:17:50.604Z,1025.10
2018-12-26T09:18:50.594Z,1025.09
2018-12-26T09:19:50.581Z,1025.15
2018-12-26T09:20:50.569Z,1025.13
2018-12-26T09:21:50.556Z,1025.16
2018-12-26T09:22:50.546Z,1025.15
2018-12-26T09:23:50.533Z,1025.17
2018-12-26T09:24:50.532Z,1025.18
2018-12-26T09:25:50.509Z,1025.17
2018-12-26T09:26:50.499Z,1025.18
2018-12-26T09:27:50.487Z,1025.21
2018-12-26T09:28:50.476Z,1025.20
2018-12-26T09:29:50.462Z,1025.15
2018-12-26T09:30:50.453Z,1025.18
2018-12-26T09:31:50.439Z,1025.16
2018-12-26T09:32:50.429Z,1025.13
2018-12-26T09:33:50.665Z,1025.11
2018-12-26T09:34:50.406Z,1025.06
2018-12-26T09:35:50.393Z,1025.11
2018-12-26T09:36:50.386Z,1025.12
2018-12-26T09:37:50.369Z,1025.10
2018-12-26T09:38:50.359Z,1025.14
2018-12-26T09:39:50.346Z,1025.12
2018-12-26T09:40:50.335Z,1025.15
2018-12-26T09:41:50.322Z,1025.10
2018-12-26T09:42:50.313Z,1025.10
2018-12-26T09:43:50.299Z,1025.17
2018-12-26T09:44:54.437Z,1025.12
2018-12-26T09:45:50.276Z,1025.13
2018-12-26T09:46:50.267Z,1025.15
2018-12-26T09:47:50.254Z,1025.16
2018-12-26T09:48:50.243Z,1025.14
2018-12-26T09:49:50.231Z,1025.16
2018-12-26T09:50:50.221Z,1025.11
2018-12-26T09:51:50.207Z,1025.06
2018-12-26T09:52:50.197Z,1025.12
2018-12-26T09:53:50.184Z,1025.10
2018-12-26T09:54:50.175Z,1025.10
2018-12-26T09:55:50.161Z,1025.06
2018-12-26T09:56:50.152Z,1025.11
2018-12-26T09:57:50.138Z,1025.12
2018-12-26T09:58:52.660Z,1025.04
2018-12-26T09:59:50.117Z,1025.07
2018-12-26T10:00:50.105Z,1025.04
2018-12-26T10:01:50.092Z,1025.04
2018-12-26T10:02:50.083Z,1025.01
2018-12-26T10:03:50.071Z,1025.03
2018-12-26T10:04:50.060Z,1025.04
2018-12-26T10:05:50.047Z,1025.04
2018-12-26T10:06:50.038Z,1025.00
2018-12-26T10:07:50.026Z,1025.01
2018-12-26T10:08:50.015Z,1025.03
2018-12-26T10:09:50.002Z,1025.02
2018-12-26T10:10:49.993Z,1024.99
2018-12-26T10:11:49.980Z,1025.01
2018-12-26T10:12:49.974Z,1025.01
2018-12-26T10:13:50.892Z,1025.01
2018-12-26T10:14:49.949Z,1025.00
2018-12-26T10:15:49.935Z,1024.99
2018-12-26T10:16:49.925Z,1025.01
2018-12-26T10:17:49.914Z,1024.97
2018-12-26T10:18:49.917Z,1024.93
2018-12-26T10:19:50.283Z,1024.98
2018-12-26T10:20:49.882Z,1025.02
2018-12-26T10:21:49.867Z,1024.98
2018-12-26T10:22:49.859Z,1025.01
2018-12-26T10:23:49.846Z,1024.99
2018-12-26T10:24:49.836Z,1024.97
2018-12-26T10:25:49.824Z,1024.97
2018-12-26T10:26:49.817Z,1024.98
2018-12-26T10:27:49.801Z,1024.97
2018-12-26T10:28:49.790Z,1024.97
2018-12-26T10:29:49.777Z,1024.98
2018-12-26T10:30:49.768Z,1024.98
2018-12-26T10:31:49.756Z,1024.95
2018-12-26T10:32:50.047Z,1025.01
2018-12-26T10:33:49.733Z,1024.98
2018-12-26T10:34:49.725Z,1024.97
2018-12-26T10:35:49.711Z,1024.98
2018-12-26T10:36:49.701Z,1024.97
2018-12-26T10:37:49.688Z,1024.97
2018-12-26T10:38:49.680Z,1024.93
2018-12-26T10:39:49.666Z,1024.93
2018-12-26T10:40:49.656Z,1024.94
2018-12-26T10:41:49.643Z,1024.99
2018-12-26T10:42:49.634Z,1024.97
2018-12-26T10:43:49.621Z,1024.93
2018-12-26T10:44:49.611Z,1024.95
2018-12-26T10:45:49.598Z,1024.90
2018-12-26T10:46:49.589Z,1024.98
2018-12-26T10:47:49.580Z,1024.93
2018-12-26T10:48:49.566Z,1024.94
2018-12-26T10:49:49.552Z,1024.97
2018-12-26T10:50:49.544Z,1024.96
2018-12-26T10:51:49.532Z,1024.96
2018-12-26T10:52:49.520Z,1024.91
2018-12-26T10:53:49.508Z,1024.91
2018-12-26T10:54:49.500Z,1024.87
2018-12-26T10:55:49.485Z,1024.89
2018-12-26T10:56:49.475Z,1024.91
2018-12-26T10:57:49.463Z,1024.89
2018-12-26T10:58:49.454Z,1024.88
2018-12-26T10:59:49.441Z,1024.91
2018-12-26T11:00:49.434Z,1024.90
2018-12-26T11:01:49.416Z,1024.89
2018-12-26T11:02:49.409Z,1024.87
2018-12-26T11:03:49.395Z,1024.94
2018-12-26T11:04:49.385Z,1024.87
2018-12-26T11:05:49.371Z,1024.89
2018-12-26T11:06:49.361Z,1024.92
2018-12-26T11:07:49.348Z,1024.94
2018-12-26T11:08:49.339Z,1024.90
2018-12-26T11:09:49.329Z,1024.88
2018-12-26T11:10:49.316Z,1024.92
2018-12-26T11:11:49.303Z,1024.91
2018-12-26T11:12:49.294Z,1024.91
2018-12-26T11:13:49.281Z,1024.87
2018-12-26T11:14:49.270Z,1024.86
2018-12-26T11:15:49.257Z,1024.83
2018-12-26T11:16:49.248Z,1024.85
2018-12-26T11:17:49.237Z,1024.84
2018-12-26T11:18:49.225Z,1024.84
2018-12-26T11:19:49.211Z,1024.88
2018-12-26T11:20:49.201Z,1024.79
2018-12-26T11:21:49.189Z,1024.81
2018-12-26T11:22:49.180Z,1024.80
2018-12-26T11:23:49.165Z,1024.71
2018-12-26T11:24:49.155Z,1024.71
2018-12-26T11:25:49.142Z,1024.72
2018-12-26T11:26:49.135Z,1024.74
2018-12-26T11:27:49.120Z,1024.71
2018-12-26T11:28:49.208Z,1024.71
2018-12-26T11:29:49.101Z,1024.71
2018-12-26T11:30:49.087Z,1024.63
2018-12-26T11:31:49.074Z,1024.63
2018-12-26T11:32:49.065Z,1024.65
2018-12-26T11:33:49.063Z,1024.68
2018-12-26T11:34:49.042Z,1024.65
2018-12-26T11:35:49.029Z,1024.62
2018-12-26T11:36:49.018Z,1024.64
2018-12-26T11:37:49.005Z,1024.60
2018-12-26T11:38:49.007Z,1024.64
2018-12-26T11:39:48.983Z,1024.57
2018-12-26T11:40:48.973Z,1024.63
2018-12-26T11:41:48.959Z,1024.62
2018-12-26T11:42:48.951Z,1024.60
2018-12-26T11:43:48.937Z,1024.61
2018-12-26T11:44:48.927Z,1024.60
2018-12-26T11:45:48.914Z,1024.61
2018-12-26T11:46:48.904Z,1024.58
2018-12-26T11:47:48.891Z,1024.58
2018-12-26T11:48:48.881Z,1024.60
2018-12-26T11:49:48.868Z,1024.55
2018-12-26T11:50:48.859Z,1024.53
2018-12-26T11:51:48.846Z,1024.57
2018-12-26T11:52:48.836Z,1024.57
2018-12-26T11:53:48.823Z,1024.52
2018-12-26T11:54:48.813Z,1024.52
2018-12-26T11:55:48.801Z,1024.54
2018-12-26T11:56:48.789Z,1024.58
2018-12-26T11:57:48.776Z,1024.51
2018-12-26T11:58:48.767Z,1024.52
2018-12-26T11:59:48.756Z,1024.47
2018-12-26T12:00:48.744Z,1024.49
2018-12-26T12:01:48.733Z,1024.48
2018-12-26T12:02:48.722Z,1024.47
2018-12-26T12:03:48.708Z,1024.50
2018-12-26T12:04:48.698Z,1024.47
2018-12-26T12:05:48.685Z,1024.49